Shetland, United Kingdom
Current Conditions -  °F | °C
As of 10:20 PM on Monday 20 Oct 2014 (Local Time) from EGPB Reporting Station
Light Rain Light Rain  
Wind Chill: 52°   Ceiling: Unl
Heat Index: 52°   Visibility: 6mi
Dew Point: 50°   Wind: 20mph
Humidity: 94%   Direction: 180°S
Pressure: 29.32"   Gusts: NA
Location:  60.15°N, 1.14°W
Report Text: EGPB 202120Z 18017KT 9000 -RA FEW008 SCT049 11/10 Q0993 TEMPO RA
Loading
Personal Weather Stations






























Interactive Weather Map
Tropical Storm Tracking
New forecast layout! Learn more

10-Day Weather Forecast

Advertisements
Track Severe Weather on mobile